Time;durP1;ratioP1;P1;durP2;ratioP2;P2;SDS_P1;SDS_P2;PMS_P1;PMS_P2;Temp;Humidity;BMP_temperature;BMP_pressure;BME280_temperature;BME280_humidity;BME280_pressure;Samples;Min_cycle;Max_cycle;Signal;HPM_P1;HPM_P2
2022/12/28 00:01:21;;;;;;;13.45;3.20;;;;;;;1.53;70.93;101473.19;6213005;23;20349;-71
2022/12/28 00:03:48;;;;;;;21.98;3.92;;;;;;;1.55;71.18;101470.47;6213529;23;20326;-71
2022/12/28 00:06:15;;;;;;;10.45;3.10;;;;;;;1.42;71.40;101465.84;6213397;23;20077;-71
2022/12/28 00:08:42;;;;;;;8.13;3.35;;;;;;;1.59;70.81;101458.78;6211576;23;20100;-71
2022/12/28 00:11:17;;;;;;;12.95;3.65;;;;;;;1.52;71.29;101466.19;6212077;23;20027;-72
2022/12/28 00:13:58;;;;;;;10.05;3.20;;;;;;;1.53;70.84;101461.75;6213319;23;20033;-70
2022/12/28 00:16:27;;;;;;;8.85;3.45;;;;;;;1.64;70.66;101454.09;6214768;23;20048;-72
2022/12/28 00:18:56;;;;;;;14.50;3.95;;;;;;;1.69;70.07;101452.06;6213194;23;20024;-72
2022/12/28 00:21:22;;;;;;;13.95;3.50;;;;;;;1.41;70.47;101452.72;6212884;23;20411;-72
2022/12/28 00:23:51;;;;;;;13.27;3.25;;;;;;;1.64;70.66;101444.34;6213284;23;20021;-72
2022/12/28 00:26:18;;;;;;;9.45;3.63;;;;;;;1.59;70.04;101442.94;6210419;23;20477;-72
2022/12/28 00:28:45;;;;;;;11.40;3.97;;;;;;;1.64;70.39;101438.22;6212654;23;20035;-72
2022/12/28 00:31:12;;;;;;;11.80;2.83;;;;;;;1.68;70.12;101445.03;6212876;23;20024;-72
2022/12/28 00:33:40;;;;;;;11.43;2.90;;;;;;;1.70;70.53;101443.19;6212659;23;20027;-71
2022/12/28 00:36:10;;;;;;;18.75;3.83;;;;;;;1.71;70.32;101434.28;6213050;23;20350;-71
2022/12/28 00:38:37;;;;;;;20.00;3.75;;;;;;;1.76;70.05;101450.78;6213268;23;20071;-71
2022/12/28 00:41:04;;;;;;;14.65;3.25;;;;;;;1.65;69.79;101459.31;6212879;23;20044;-71
2022/12/28 00:43:31;;;;;;;11.65;3.30;;;;;;;1.62;70.29;101451.53;6213025;23;20048;-71
2022/12/28 00:45:58;;;;;;;14.07;3.45;;;;;;;1.77;69.82;101436.59;6211840;23;20096;-68
2022/12/28 00:48:25;;;;;;;18.38;3.60;;;;;;;1.61;70.00;101428.69;6215012;23;20032;-71
2022/12/28 00:50:51;;;;;;;14.30;3.28;;;;;;;1.76;69.57;101421.69;6207210;23;20390;-72
2022/12/28 00:53:18;;;;;;;15.98;3.67;;;;;;;1.74;70.00;101426.19;6214084;23;20024;-71
2022/12/28 00:55:44;;;;;;;13.20;3.92;;;;;;;1.75;70.00;101427.91;6213012;23;20029;-72
2022/12/28 00:58:11;;;;;;;10.90;2.63;;;;;;;1.64;69.94;101433.78;6214736;23;20019;-72
2022/12/28 01:00:37;;;;;;;14.85;4.32;;;;;;;1.72;70.16;101428.09;6214075;23;20047;-71
2022/12/28 01:03:04;;;;;;;17.67;4.05;;;;;;;1.77;69.87;101433.97;6212123;23;20016;-71
2022/12/28 01:05:31;;;;;;;11.68;3.55;;;;;;;1.83;69.84;101430.13;6212894;23;20017;-71
2022/12/28 01:07:57;;;;;;;11.93;3.42;;;;;;;1.73;69.41;101421.84;6213751;23;20016;-71
2022/12/28 01:10:24;;;;;;;8.38;2.85;;;;;;;1.83;69.44;101415.09;6211915;23;20350;-71
2022/12/28 01:12:50;;;;;;;10.93;3.78;;;;;;;1.79;69.14;101429.44;6214534;23;20020;-72
2022/12/28 01:15:17;;;;;;;9.68;3.58;;;;;;;1.81;69.84;101422.25;6211971;23;20027;-70
2022/12/28 01:17:43;;;;;;;10.23;3.10;;;;;;;1.87;69.42;101408.69;6214164;23;20028;-72
2022/12/28 01:20:10;;;;;;;11.77;3.53;;;;;;;1.73;69.70;101414.75;6215551;23;20097;-71
2022/12/28 01:22:36;;;;;;;15.82;3.50;;;;;;;1.86;69.44;101422.03;6214264;23;20084;-70
2022/12/28 01:25:03;;;;;;;10.27;3.10;;;;;;;1.76;69.61;101407.59;6212966;23;20020;-70
2022/12/28 01:27:31;;;;;;;5.78;2.80;;;;;;;1.79;69.60;101400.34;6211143;23;20020;-72
2022/12/28 01:29:57;;;;;;;8.15;2.90;;;;;;;1.85;68.84;101389.38;6213465;23;20084;-70
2022/12/28 01:32:24;;;;;;;9.40;2.95;;;;;;;1.83;69.29;101393.09;6212820;22;20378;-70
2022/12/28 01:34:50;;;;;;;16.13;3.42;;;;;;;1.77;69.46;101386.34;6211702;23;20103;-71
2022/12/28 01:37:17;;;;;;;8.68;2.85;;;;;;;1.78;69.18;101390.69;6213128;23;20095;-71
2022/12/28 01:39:43;;;;;;;9.23;2.92;;;;;;;1.75;69.54;101376.78;6212478;23;20398;-72
2022/12/28 01:42:19;;;;;;;12.88;3.38;;;;;;;1.81;69.60;101373.78;6212938;23;20024;-71
2022/12/28 01:44:48;;;;;;;14.50;3.78;;;;;;;1.74;69.43;101370.63;6213469;23;20095;-72
2022/12/28 01:47:29;;;;;;;11.73;3.08;;;;;;;1.76;68.71;101368.78;6213405;23;20024;-71
2022/12/28 01:50:03;;;;;;;7.03;3.10;;;;;;;1.56;69.59;101367.25;6214357;23;20012;-71
2022/12/28 01:52:36;;;;;;;11.15;3.20;;;;;;;1.61;70.09;101362.56;6212836;23;20075;-71
2022/12/28 01:55:24;;;;;;;18.25;3.22;;;;;;;1.59;69.60;101359.13;6213946;23;20020;-71
2022/12/28 01:58:04;;;;;;;17.65;3.30;;;;;;;1.45;69.99;101346.69;6213204;23;20389;-71
2022/12/28 02:00:31;;;;;;;7.82;2.67;;;;;;;1.63;69.20;101334.22;6212782;23;20353;-71
2022/12/28 02:03:02;;;;;;;18.67;4.18;;;;;;;1.54;69.86;101334.72;6205846;22;20056;-71
2022/12/28 02:09:25;;;;;;;11.82;3.10;;;;;;;1.48;69.90;101317.44;6216488;23;20396;-72
2022/12/28 02:11:53;;;;;;;10.93;3.30;;;;;;;1.51;69.41;101316.41;6213694;23;20108;-72
2022/12/28 02:14:20;;;;;;;14.23;3.83;;;;;;;1.36;69.93;101311.97;6214699;23;20017;-71
2022/12/28 02:16:47;;;;;;;10.00;3.67;;;;;;;1.40;69.98;101302.94;6214551;23;20088;-71
2022/12/28 02:19:20;;;;;;;9.63;3.13;;;;;;;1.56;69.30;101298.50;6213825;23;20023;-70
2022/12/28 02:22:01;;;;;;;12.00;3.85;;;;;;;1.38;69.50;101289.81;6214566;23;20048;-71
2022/12/28 02:24:51;;;;;;;9.85;3.75;;;;;;;1.32;70.17;101284.03;6216378;23;20104;-71
2022/12/28 02:27:59;;;;;;;15.63;3.25;;;;;;;1.27;69.77;101275.50;6217106;23;20349;-71
2022/12/28 02:30:26;;;;;;;15.20;3.78;;;;;;;1.32;69.55;101281.38;6216657;23;20023;-71
2022/12/28 02:33:16;;;;;;;8.82;3.60;;;;;;;1.37;69.31;101272.25;6215586;23;20048;-71
2022/12/28 02:35:54;;;;;;;15.60;3.95;;;;;;;1.40;69.28;101272.09;6216218;23;20025;-73
2022/12/28 02:38:27;;;;;;;7.55;3.55;;;;;;;1.31;69.67;101256.75;6216785;23;20100;-71
2022/12/28 02:41:04;;;;;;;15.75;3.85;;;;;;;1.48;69.22;101261.06;6218064;23;20031;-72
2022/12/28 02:43:32;;;;;;;12.23;3.13;;;;;;;1.39;69.24;101249.22;6216372;23;20016;-72
2022/12/28 02:52:06;;;;;;;11.68;3.08;;;;;;;1.15;69.40;101232.13;6210218;23;20050;-72
2022/12/28 02:58:20;;;;;;;20.15;4.90;;;;;;;1.30;69.64;101231.25;6215745;23;20103;-71
2022/12/28 03:01:17;;;;;;;5.47;2.83;;;;;;;1.32;69.38;101218.78;6215188;23;20509;-72
2022/12/28 03:03:56;;;;;;;13.60;4.35;;;;;;;1.23;69.70;101220.19;6215221;23;20024;-69
2022/12/28 03:09:49;;;;;;;11.13;4.00;;;;;;;1.29;69.05;101189.88;6196590;23;20092;-71
2022/12/28 03:12:31;;;;;;;14.38;3.65;;;;;;;1.24;69.15;101186.66;6184615;23;20112;-72
2022/12/28 03:15:07;;;;;;;10.07;4.00;;;;;;;1.27;69.08;101175.91;6183205;23;20044;-70
2022/12/28 03:31:39;;;;;;;11.20;3.13;;;;;;;1.19;69.08;101160.47;6212094;23;20345;-70
2022/12/28 03:34:06;;;;;;;17.50;3.80;;;;;;;1.31;68.90;101158.94;6214769;23;20017;-68
2022/12/28 03:36:38;;;;;;;16.52;3.70;;;;;;;1.22;69.01;101162.09;6214660;23;20318;-71
2022/12/28 03:39:30;;;;;;;13.05;2.95;;;;;;;1.29;69.37;101144.94;6194981;23;20037;-71
2022/12/28 03:44:53;;;;;;;8.30;2.95;;;;;;;1.19;69.38;101141.13;6215142;23;19954;-71
2022/12/28 03:47:22;;;;;;;11.25;3.08;;;;;;;0.97;69.71;101129.19;6213910;23;20020;-71
2022/12/28 03:49:49;;;;;;;10.52;3.50;;;;;;;1.25;69.02;101114.34;6206911;23;20063;-71
2022/12/28 03:52:16;;;;;;;14.50;3.45;;;;;;;1.11;69.32;101109.88;6214778;23;20020;-72
2022/12/28 03:54:42;;;;;;;8.25;3.25;;;;;;;1.06;69.43;101111.06;6215382;23;20492;-70
2022/12/28 03:57:09;;;;;;;7.38;2.88;;;;;;;1.29;68.86;101104.44;6214556;23;20534;-71
2022/12/28 03:59:35;;;;;;;10.30;3.08;;;;;;;1.16;69.54;101101.66;6217548;23;20043;-71
2022/12/28 04:02:02;;;;;;;9.90;3.42;;;;;;;1.21;69.63;101112.84;6215835;23;20036;-70
2022/12/28 04:04:28;;;;;;;10.18;2.80;;;;;;;1.09;68.99;101106.50;6200485;23;20028;-70
2022/12/28 04:06:55;;;;;;;11.70;2.92;;;;;;;0.95;69.85;101099.38;6214021;23;20108;-71
2022/12/28 04:09:21;;;;;;;6.50;2.58;;;;;;;1.03;69.23;101096.28;6214295;23;20022;-70
2022/12/28 04:11:48;;;;;;;13.13;3.15;;;;;;;0.96;69.23;101100.22;6215486;23;20044;-72
2022/12/28 04:14:15;;;;;;;11.07;3.15;;;;;;;1.13;68.78;101097.44;6188610;23;20095;-71
2022/12/28 04:16:41;;;;;;;7.95;2.67;;;;;;;0.97;69.23;101083.41;6215168;23;20521;-71
2022/12/28 04:19:09;;;;;;;8.27;2.78;;;;;;;1.07;69.05;101081.09;6215179;23;20024;-70
2022/12/28 04:21:35;;;;;;;6.70;2.75;;;;;;;0.92;69.22;101074.94;6217058;23;20024;-71
2022/12/28 04:24:02;;;;;;;14.90;2.67;;;;;;;1.01;68.91;101062.00;6214392;23;20048;-71
2022/12/28 04:26:28;;;;;;;13.25;3.22;;;;;;;1.11;68.82;101059.66;6215744;23;20103;-71
2022/12/28 04:29:00;;;;;;;7.85;2.72;;;;;;;0.92;69.19;101054.63;6215630;23;20021;-70
2022/12/28 04:31:28;;;;;;;9.32;3.42;;;;;;;1.10;69.25;101054.50;6214057;23;20441;-71
2022/12/28 04:33:56;;;;;;;10.95;3.08;;;;;;;0.92;69.52;101049.34;6213987;23;20072;-71
2022/12/28 04:36:24;;;;;;;8.43;2.67;;;;;;;1.05;68.80;101038.03;6214742;23;20024;-70
2022/12/28 04:38:50;;;;;;;11.02;2.80;;;;;;;1.00;69.05;101040.97;6202751;23;20100;-72
2022/12/28 04:41:17;;;;;;;7.70;2.63;;;;;;;0.99;68.92;101037.47;6216432;23;20056;-71
2022/12/28 04:43:44;;;;;;;6.05;2.35;;;;;;;0.80;69.50;101030.72;6213894;23;20103;-72
2022/12/28 04:46:15;;;;;;;13.40;2.40;;;;;;;0.93;69.36;101037.84;6214567;23;20454;-72
2022/12/28 04:48:42;;;;;;;7.75;2.13;;;;;;;0.95;69.24;101035.97;6213473;23;20013;-72
2022/12/28 04:51:13;;;;;;;11.77;2.92;;;;;;;0.99;69.33;101037.47;6215115;23;20020;-71
2022/12/28 04:53:40;;;;;;;6.90;2.60;;;;;;;0.93;69.08;101035.19;6215334;23;20071;-71
2022/12/28 04:56:09;;;;;;;9.77;2.47;;;;;;;0.99;69.30;101039.28;6215702;23;20091;-69
2022/12/28 04:58:36;;;;;;;9.05;2.55;;;;;;;0.80;69.68;101028.94;6217350;23;20103;-71
2022/12/28 05:01:07;;;;;;;8.73;2.38;;;;;;;0.86;69.87;101039.13;6215489;23;20055;-71
2022/12/28 05:03:35;;;;;;;5.28;1.75;;;;;;;1.01;68.98;101038.22;6216457;23;20020;-70
2022/12/28 05:06:04;;;;;;;9.90;2.42;;;;;;;0.97;69.27;101034.06;6213569;23;20017;-71
2022/12/28 05:08:31;;;;;;;9.88;2.53;;;;;;;0.99;69.16;101020.78;6209174;23;20020;-70
2022/12/28 05:10:59;;;;;;;7.30;2.30;;;;;;;0.85;69.54;101023.38;6216313;23;20024;-72
2022/12/28 05:13:26;;;;;;;6.70;2.25;;;;;;;0.95;69.55;101022.75;6214635;23;20111;-71
2022/12/28 05:15:53;;;;;;;7.18;2.28;;;;;;;0.92;69.15;101025.56;6214839;23;20031;-72
2022/12/28 05:18:20;;;;;;;11.05;2.72;;;;;;;1.01;69.08;101027.66;6213932;23;20020;-72
2022/12/28 05:20:46;;;;;;;8.57;2.50;;;;;;;1.07;69.29;101020.31;6215033;23;20392;-71
2022/12/28 05:23:12;;;;;;;14.50;2.50;;;;;;;0.97;68.77;101020.84;6214423;23;20103;-71
2022/12/28 05:25:39;;;;;;;10.52;2.30;;;;;;;0.91;69.34;101023.84;6215357;23;20024;-71
2022/12/28 05:28:06;;;;;;;9.00;2.00;;;;;;;0.89;69.25;101012.53;6215972;23;20091;-72
2022/12/28 05:30:32;;;;;;;6.55;2.00;;;;;;;0.88;69.41;101021.38;6217166;23;20024;-72
2022/12/28 05:32:59;;;;;;;13.27;2.50;;;;;;;0.92;69.34;101008.88;6216425;23;20043;-72
2022/12/28 05:35:25;;;;;;;10.50;2.40;;;;;;;0.95;69.02;101006.91;6215907;23;20020;-71
2022/12/28 05:37:52;;;;;;;6.68;2.45;;;;;;;0.98;68.73;100997.94;6216161;23;20024;-72
2022/12/28 05:40:18;;;;;;;8.23;2.20;;;;;;;1.11;68.82;101000.69;6217180;23;20103;-72
2022/12/28 05:42:45;;;;;;;11.80;2.40;;;;;;;0.97;68.88;101002.38;6216032;23;20052;-70
2022/12/28 05:45:17;;;;;;;8.38;2.20;;;;;;;1.15;68.47;100995.13;6217003;23;20020;-72
2022/12/28 05:47:43;;;;;;;15.45;2.28;;;;;;;1.15;68.63;100995.13;6216784;23;20048;-72
2022/12/28 05:50:10;;;;;;;11.00;2.25;;;;;;;0.98;69.10;100982.91;6217296;23;20073;-72
2022/12/28 05:52:36;;;;;;;10.48;2.15;;;;;;;1.05;69.12;100982.56;6217291;23;20100;-71
2022/12/28 05:55:04;;;;;;;10.18;1.73;;;;;;;1.19;68.17;100985.22;6216373;23;20059;-72
2022/12/28 05:57:31;;;;;;;10.15;2.47;;;;;;;1.07;68.26;100981.53;6218178;23;20350;-70
2022/12/28 05:59:57;;;;;;;9.82;2.35;;;;;;;1.11;68.81;100969.00;6218925;23;20028;-70
2022/12/28 06:02:26;;;;;;;8.15;1.98;;;;;;;1.21;68.21;100965.69;6220076;23;20029;-70
2022/12/28 06:04:53;;;;;;;8.20;1.90;;;;;;;1.19;68.68;100972.84;6218872;23;20016;-72
2022/12/28 06:07:20;;;;;;;10.75;1.95;;;;;;;1.21;68.34;100959.56;6219247;23;20453;-72
2022/12/28 06:09:46;;;;;;;14.10;2.40;;;;;;;1.30;68.20;100959.00;6217978;23;20027;-71
2022/12/28 06:12:13;;;;;;;9.00;2.30;;;;;;;1.10;68.32;100964.66;6219484;23;20080;-72
2022/12/28 06:14:39;;;;;;;11.20;2.00;;;;;;;1.05;68.75;100954.34;6221628;23;20052;-72
2022/12/28 06:17:06;;;;;;;14.00;2.67;;;;;;;1.16;68.73;100951.91;6221971;23;20028;-72
2022/12/28 06:19:32;;;;;;;10.73;2.47;;;;;;;1.22;68.18;100938.31;6221345;23;20104;-71
2022/12/28 06:21:59;;;;;;;13.55;2.17;;;;;;;1.20;68.63;100934.09;6220100;23;20386;-72
2022/12/28 06:24:25;;;;;;;8.50;1.80;;;;;;;1.30;68.37;100936.97;6206157;23;20024;-71
2022/12/28 06:26:52;;;;;;;9.45;1.83;;;;;;;1.22;68.50;100942.75;6219244;23;20446;-71
2022/12/28 06:29:18;;;;;;;8.55;1.88;;;;;;;1.30;68.41;100923.75;6219878;23;20419;-71
2022/12/28 06:31:46;;;;;;;9.30;1.88;;;;;;;1.41;68.47;100938.03;6219668;23;20441;-72
2022/12/28 06:34:13;;;;;;;11.85;2.08;;;;;;;1.32;68.36;100930.66;6219568;23;20410;-72
2022/12/28 06:36:42;;;;;;;5.65;2.00;;;;;;;1.40;68.09;100925.75;6217685;23;20025;-71
2022/12/28 06:39:10;;;;;;;8.48;1.83;;;;;;;1.30;68.34;100914.06;6218180;23;20091;-70
2022/12/28 06:41:38;;;;;;;9.80;1.80;;;;;;;1.43;68.68;100914.97;6218487;23;20080;-71
2022/12/28 06:44:06;;;;;;;8.48;2.38;;;;;;;1.47;69.17;100916.50;6218426;23;20016;-71
2022/12/28 06:46:32;;;;;;;6.38;2.13;;;;;;;1.44;69.86;100911.41;6216787;23;20025;-71
2022/12/28 06:48:59;;;;;;;9.02;2.20;;;;;;;1.33;70.66;100908.56;6214178;23;20349;-72
2022/12/28 06:51:34;;;;;;;10.43;2.35;;;;;;;1.43;71.31;100909.69;6216011;23;20055;-71
2022/12/28 06:54:01;;;;;;;9.40;2.50;;;;;;;1.51;70.95;100898.66;6215896;23;20044;-72
2022/12/28 06:56:30;;;;;;;6.72;1.90;;;;;;;1.32;71.61;100890.16;6215922;23;20088;-71
2022/12/28 06:58:57;;;;;;;6.75;2.22;;;;;;;1.39;71.35;100891.47;6216567;23;20024;-71
2022/12/28 07:01:39;;;;;;;10.40;2.13;;;;;;;1.54;71.82;100885.19;6212686;23;20059;-71
2022/12/28 07:04:07;;;;;;;10.23;3.03;;;;;;;1.28;72.44;100894.81;6214944;23;20021;-70
2022/12/28 07:06:38;;;;;;;6.10;2.33;;;;;;;1.31;72.37;100885.84;6215139;23;20024;-70
2022/12/28 07:09:07;;;;;;;7.32;2.67;;;;;;;1.41;72.52;100876.38;6216085;23;20024;-71
2022/12/28 07:11:35;;;;;;;11.68;2.92;;;;;;;1.32;73.16;100877.78;6218535;23;20461;-71
2022/12/28 07:14:02;;;;;;;13.45;3.20;;;;;;;1.18;73.53;100869.91;6216750;23;20080;-72
2022/12/28 07:16:29;;;;;;;9.13;2.60;;;;;;;1.29;73.28;100872.69;6215582;23;20090;-71
2022/12/28 07:18:55;;;;;;;11.07;2.72;;;;;;;1.33;73.75;100857.50;6215547;23;20028;-70
2022/12/28 07:21:25;;;;;;;12.95;2.58;;;;;;;1.42;73.47;100857.75;6203436;23;20019;-71
2022/12/28 07:23:53;;;;;;;9.45;2.85;;;;;;;1.39;73.38;100863.25;6204016;23;20339;-71
2022/12/28 07:26:25;;;;;;;11.68;2.47;;;;;;;1.42;73.83;100859.56;6209101;23;20104;-71
2022/12/28 07:28:54;;;;;;;9.23;2.97;;;;;;;1.37;73.71;100859.88;6216235;23;20027;-72
2022/12/28 07:31:26;;;;;;;10.45;2.53;;;;;;;1.41;73.28;100856.09;6216749;23;20039;-73
2022/12/28 07:33:54;;;;;;;7.05;3.05;;;;;;;1.57;73.19;100845.34;6216553;23;20024;-73
2022/12/28 07:36:22;;;;;;;9.05;2.92;;;;;;;1.51;73.38;100844.91;6215485;23;20044;-72
2022/12/28 07:38:49;;;;;;;9.00;2.50;;;;;;;1.54;73.03;100839.41;6218349;23;20025;-72
2022/12/28 07:41:19;;;;;;;12.98;3.08;;;;;;;1.53;73.89;100830.63;6216299;23;20036;-72
2022/12/28 07:43:46;;;;;;;7.72;2.97;;;;;;;1.54;73.83;100828.84;6217508;23;20025;-72
2022/12/28 07:46:17;;;;;;;13.05;3.13;;;;;;;1.62;73.24;100831.84;6217657;23;20401;-71
2022/12/28 07:48:45;;;;;;;14.68;2.95;;;;;;;1.69;73.71;100834.00;6211422;23;20112;-71
2022/12/28 07:51:17;;;;;;;6.53;2.45;;;;;;;1.62;74.03;100822.13;6217972;23;20031;-71
2022/12/28 07:53:46;;;;;;;11.95;3.30;;;;;;;1.59;73.80;100829.41;6217506;23;20542;-70
2022/12/28 07:56:13;;;;;;;13.57;2.70;;;;;;;1.64;73.42;100822.00;6218268;23;20024;-71
2022/12/28 07:58:40;;;;;;;10.38;2.47;;;;;;;1.71;73.81;100824.16;6217990;23;20071;-72
2022/12/28 08:01:12;;;;;;;8.80;2.40;;;;;;;1.68;73.68;100828.78;6217256;23;20017;-72
2022/12/28 08:03:40;;;;;;;8.95;2.95;;;;;;;1.93;73.18;100820.13;6214752;23;20017;-72
2022/12/28 08:06:10;;;;;;;9.60;3.25;;;;;;;1.71;74.34;100823.28;6215784;23;20087;-72
2022/12/28 08:08:38;;;;;;;6.97;3.00;;;;;;;1.75;74.27;100819.53;6216604;23;20023;-72
2022/12/28 08:11:09;;;;;;;8.85;2.75;;;;;;;1.62;75.05;100824.75;6215491;23;20108;-71
2022/12/28 08:13:38;;;;;;;8.77;2.77;;;;;;;1.79;74.80;100815.72;6216909;23;20354;-71
2022/12/28 08:16:05;;;;;;;11.65;3.22;;;;;;;1.85;75.04;100811.81;6217609;23;20320;-70
2022/12/28 08:18:32;;;;;;;6.57;2.35;;;;;;;1.57;75.56;100807.50;6215324;23;20027;-71
2022/12/28 08:21:05;;;;;;;19.33;3.15;;;;;;;1.83;75.06;100798.69;6216724;23;20025;-71
2022/12/28 08:23:32;;;;;;;14.45;3.30;;;;;;;1.78;75.01;100800.78;6208484;23;20020;-72
2022/12/28 08:26:21;;;;;;;11.45;3.58;;;;;;;1.79;75.60;100802.50;6215878;23;20059;-71
2022/12/28 08:28:50;;;;;;;8.52;3.08;;;;;;;1.91;75.39;100796.38;6216046;23;20397;-71
2022/12/28 08:31:20;;;;;;;10.73;2.83;;;;;;;1.71;75.83;100784.50;6216111;23;20051;-71
2022/12/28 08:33:47;;;;;;;9.00;3.33;;;;;;;1.90;74.77;100786.75;6209030;23;20024;-71
2022/12/28 08:36:14;;;;;;;9.15;3.05;;;;;;;1.95;74.79;100786.47;6218802;23;20027;-71
2022/12/28 08:38:41;;;;;;;13.75;3.22;;;;;;;1.88;74.73;100778.06;6220658;23;20035;-72
2022/12/28 08:41:12;;;;;;;11.02;3.67;;;;;;;1.99;74.77;100772.06;6223217;23;20043;-72
2022/12/28 08:43:39;;;;;;;15.68;3.53;;;;;;;1.98;74.31;100769.53;6220205;23;20025;-73
2022/12/28 08:46:10;;;;;;;11.82;3.50;;;;;;;2.08;74.26;100766.16;6219520;23;20017;-72
2022/12/28 08:48:37;;;;;;;9.93;3.63;;;;;;;2.04;74.13;100769.13;6216982;23;20027;-72
2022/12/28 08:51:06;;;;;;;11.18;3.10;;;;;;;2.18;74.02;100766.41;6216957;23;20106;-72
2022/12/28 08:53:34;;;;;;;10.48;3.13;;;;;;;2.16;72.98;100768.28;6183213;23;20043;-72
2022/12/28 08:56:10;;;;;;;9.40;3.15;;;;;;;2.37;73.02;100758.91;6219695;23;20096;-71
2022/12/28 08:58:38;;;;;;;10.50;2.90;;;;;;;2.42;72.20;100756.75;6219843;23;20026;-71
2022/12/28 09:01:10;;;;;;;10.80;2.40;;;;;;;2.32;72.35;100763.63;6217712;23;20020;-71
2022/12/28 09:03:38;;;;;;;7.05;2.97;;;;;;;2.46;72.34;100761.84;6217555;23;20023;-71
2022/12/28 09:06:08;;;;;;;13.23;3.08;;;;;;;2.44;72.32;100756.63;6219814;23;20111;-71
2022/12/28 09:08:35;;;;;;;14.57;2.63;;;;;;;2.46;72.34;100752.09;6217930;23;20021;-72
2022/12/28 09:11:04;;;;;;;9.70;2.92;;;;;;;2.59;71.65;100752.09;6218182;23;20048;-72
2022/12/28 09:13:32;;;;;;;7.65;2.50;;;;;;;2.60;71.82;100761.72;6217490;23;20024;-71
2022/12/28 09:16:05;;;;;;;8.52;2.90;;;;;;;2.53;71.77;100757.81;6192046;23;20044;-71
2022/12/28 09:18:33;;;;;;;8.07;2.75;;;;;;;2.58;72.05;100750.38;6218111;23;20024;-71
2022/12/28 09:21:12;;;;;;;21.40;3.00;;;;;;;2.43;72.24;100734.59;6218333;23;20021;-71
2022/12/28 09:23:39;;;;;;;6.20;2.72;;;;;;;2.40;71.88;100745.41;6219056;23;20032;-72
2022/12/28 09:26:18;;;;;;;9.65;2.78;;;;;;;2.56;72.44;100734.59;6220920;23;20429;-70
2022/12/28 09:28:51;;;;;;;7.97;2.33;;;;;;;2.51;72.16;100730.56;6219939;23;20021;-70
2022/12/28 09:31:19;;;;;;;7.28;2.40;;;;;;;2.54;72.58;100733.00;6218430;23;20524;-73
2022/12/28 09:34:01;;;;;;;9.82;3.15;;;;;;;2.57;73.04;100724.84;6217808;23;20035;-72
2022/12/28 09:36:47;;;;;;;6.05;2.22;;;;;;;2.51;72.87;100725.28;6215627;23;20032;-71
2022/12/28 09:39:16;;;;;;;6.35;2.40;;;;;;;2.45;72.70;100704.56;6217059;23;20391;-74
2022/12/28 09:42:04;;;;;;;7.85;2.58;;;;;;;2.62;73.37;100717.44;6200179;23;20024;-72
2022/12/28 09:44:58;;;;;;;8.15;3.13;;;;;;;2.63;73.02;100717.31;6200286;23;20114;-73
2022/12/28 09:47:48;;;;;;;9.63;2.40;;;;;;;2.88;72.35;100711.09;6185371;23;20013;-72
2022/12/28 09:50:15;;;;;;;5.63;2.63;;;;;;;2.73;72.68;100701.63;6185206;23;20115;-69
2022/12/28 09:53:06;;;;;;;5.80;2.75;;;;;;;2.84;72.12;100701.69;6184926;23;20277;-72
2022/12/28 09:55:35;;;;;;;8.68;2.50;;;;;;;2.88;72.41;100697.84;6185605;23;20017;-72
2022/12/28 09:58:04;;;;;;;9.57;2.70;;;;;;;2.82;71.84;100702.75;6183790;23;20028;-73
2022/12/28 10:00:46;;;;;;;9.35;2.60;;;;;;;2.84;72.34;100701.69;6178387;23;20021;-73
2022/12/28 10:03:18;;;;;;;7.80;2.88;;;;;;;2.66;72.72;100682.69;6184086;23;20040;-72
2022/12/28 10:05:45;;;;;;;14.00;3.35;;;;;;;2.85;72.33;100682.19;6186558;23;20335;-72
2022/12/28 10:08:16;;;;;;;7.32;2.78;;;;;;;2.87;72.42;100690.03;6187575;23;20463;-72
2022/12/28 10:10:43;;;;;;;7.43;2.33;;;;;;;2.96;72.55;100684.03;6187268;23;20049;-72
2022/12/28 10:13:16;;;;;;;9.10;2.75;;;;;;;2.99;72.31;100678.53;6187502;23;20029;-72
2022/12/28 10:16:05;;;;;;;6.75;3.30;;;;;;;3.08;72.44;100674.38;6187234;23;20028;-71
2022/12/28 10:18:34;;;;;;;6.05;2.58;;;;;;;3.07;72.50;100675.34;6179753;23;20021;-72
2022/12/28 10:21:05;;;;;;;11.48;2.90;;;;;;;3.08;72.73;100664.59;6186735;23;20059;-72
2022/12/28 10:23:34;;;;;;;6.38;2.80;;;;;;;3.19;72.92;100669.09;6180882;23;20097;-73
2022/12/28 10:26:17;;;;;;;12.43;3.00;;;;;;;3.36;72.64;100671.34;6187184;23;20027;-70
2022/12/28 10:28:51;;;;;;;6.00;2.35;;;;;;;3.34;71.89;100662.69;6188952;23;20025;-73
2022/12/28 10:31:31;;;;;;;4.97;2.97;;;;;;;3.28;72.73;100673.75;6219931;23;20025;-73
2022/12/28 10:33:59;;;;;;;6.50;2.90;;;;;;;3.24;73.93;100669.63;6219153;23;20441;-73
2022/12/28 10:36:31;;;;;;;8.02;2.90;;;;;;;3.23;73.98;100657.31;6218497;23;20028;-73
2022/12/28 10:38:59;;;;;;;7.30;2.85;;;;;;;3.37;73.58;100648.31;6219473;23;20480;-72
2022/12/28 10:41:36;;;;;;;7.40;3.17;;;;;;;3.24;74.08;100651.06;6212636;23;20017;-71
2022/12/28 10:44:33;;;;;;;5.35;3.00;;;;;;;3.33;73.79;100650.38;6221667;23;20020;-72
2022/12/28 10:47:40;;;;;;;7.18;2.92;;;;;;;3.34;74.26;100637.94;6203290;23;20021;-73
2022/12/28 10:50:42;;;;;;;8.00;2.78;;;;;;;3.33;74.08;100634.47;6203626;23;20086;-72
2022/12/28 10:53:31;;;;;;;6.80;2.50;;;;;;;3.49;73.62;100646.56;6221957;23;20095;-71
2022/12/28 10:56:09;;;;;;;6.47;2.97;;;;;;;3.71;73.12;100633.34;6222647;23;20024;-72
2022/12/28 10:58:37;;;;;;;8.38;3.03;;;;;;;3.59;73.22;100642.25;6221984;23;20453;-71
2022/12/28 11:01:12;;;;;;;7.10;2.78;;;;;;;3.65;73.31;100627.66;6222181;23;20029;-73
2022/12/28 11:04:01;;;;;;;7.43;3.00;;;;;;;3.65;72.65;100625.84;6220672;23;20104;-71
2022/12/28 11:06:49;;;;;;;10.13;3.35;;;;;;;3.67;72.95;100621.28;6219252;23;20021;-71
2022/12/28 11:09:21;;;;;;;6.50;2.67;;;;;;;3.63;72.89;100620.69;6223011;23;20079;-72
2022/12/28 11:11:49;;;;;;;6.43;3.08;;;;;;;3.88;72.20;100625.91;6221639;23;20040;-71
2022/12/28 11:14:36;;;;;;;5.78;2.80;;;;;;;3.95;72.01;100621.81;6226216;23;20036;-72
2022/12/28 11:17:16;;;;;;;5.85;2.75;;;;;;;4.05;71.42;100620.97;6224276;23;20029;-73
2022/12/28 11:19:43;;;;;;;5.57;2.55;;;;;;;3.89;72.18;100619.63;6223319;23;20033;-72
2022/12/28 11:22:12;;;;;;;5.13;2.53;;;;;;;3.98;71.51;100624.22;6225749;23;20017;-72
2022/12/28 11:24:39;;;;;;;8.07;2.70;;;;;;;3.99;71.28;100613.47;6229122;23;20032;-73
2022/12/28 11:27:12;;;;;;;5.90;2.65;;;;;;;3.95;71.69;100609.38;6228432;23;20032;-72
2022/12/28 11:29:44;;;;;;;5.63;2.30;;;;;;;4.06;71.59;100608.53;6221360;23;20020;-72
2022/12/28 11:32:23;;;;;;;10.50;3.15;;;;;;;4.26;70.89;100598.97;6222783;23;20393;-71
2022/12/28 11:34:52;;;;;;;4.95;2.20;;;;;;;4.14;71.45;100591.97;6227879;23;20039;-71
2022/12/28 11:37:18;;;;;;;6.60;3.30;;;;;;;4.15;70.85;100599.00;6228981;23;20020;-72
2022/12/28 11:39:50;;;;;;;7.30;2.55;;;;;;;4.36;70.73;100602.59;6232110;23;20055;-72
2022/12/28 11:42:34;;;;;;;5.45;2.50;;;;;;;4.29;70.58;100588.97;6232336;23;20031;-72
2022/12/28 11:45:35;;;;;;;4.88;2.40;;;;;;;4.46;70.05;100600.09;6214278;22;20056;-71
2022/12/28 11:48:39;;;;;;;7.28;2.30;;;;;;;4.66;69.74;100585.16;6206864;23;20055;-72
2022/12/28 11:51:17;;;;;;;6.55;2.10;;;;;;;4.50;70.04;100585.59;6227045;23;20047;-72
2022/12/28 11:53:43;;;;;;;5.47;2.28;;;;;;;4.47;70.32;100583.16;6229962;23;20024;-72
2022/12/28 11:56:18;;;;;;;4.35;1.88;;;;;;;4.43;69.88;100579.06;6226895;23;20386;-72
2022/12/28 11:58:53;;;;;;;6.13;2.40;;;;;;;4.36;70.37;100580.50;6232975;23;20028;-73
2022/12/28 12:01:28;;;;;;;4.95;2.15;;;;;;;4.48;70.34;100577.72;6234450;23;20043;-70
2022/12/28 12:03:58;;;;;;;8.45;2.15;;;;;;;4.40;70.35;100572.19;6231378;23;20030;-72
2022/12/28 12:06:43;;;;;;;5.28;2.25;;;;;;;4.44;70.07;100568.31;6221931;23;20020;-72
2022/12/28 12:09:27;;;;;;;4.85;1.90;;;;;;;4.55;70.10;100567.44;6231399;23;20055;-73
2022/12/28 12:11:53;;;;;;;7.43;2.28;;;;;;;4.50;70.47;100566.97;6229860;23;20025;-71
2022/12/28 12:14:32;;;;;;;4.10;1.85;;;;;;;4.55;70.00;100565.63;6227603;22;20016;-73
2022/12/28 12:17:06;;;;;;;4.40;2.30;;;;;;;4.46;70.27;100566.38;6231224;23;20490;-73
2022/12/28 12:19:36;;;;;;;3.88;2.08;;;;;;;4.58;70.26;100561.88;6227940;23;20039;-72
2022/12/28 12:22:14;;;;;;;12.00;3.10;;;;;;;5.23;68.94;100555.56;6226917;23;20080;-72